Time;durP1;ratioP1;P1;durP2;ratioP2;P2;SDS_P1;SDS_P2;PMS_P1;PMS_P2;Temp;Humidity;BMP_temperature;BMP_pressure;BME280_temperature;BME280_humidity;BME280_pressure;Samples;Min_cycle;Max_cycle;Signal;HPM_P1;HPM_P2
2023/01/19 00:00:53;;;;;;;27.50;17.20;;;;;;;3.72;100.00;100616.32;105506;1253;61865;-61
2023/01/19 00:03:21;;;;;;;24.30;15.60;;;;;;;3.71;100.00;100619.45;105632;1255;61878;-62
2023/01/19 00:05:49;;;;;;;26.80;16.70;;;;;;;3.71;100.00;100620.70;105609;1255;74659;-61
2023/01/19 00:08:17;;;;;;;26.90;15.50;;;;;;;3.70;100.00;100610.79;105685;1255;68197;-64
2023/01/19 00:10:46;;;;;;;27.40;15.70;;;;;;;3.69;100.00;100615.52;107107;1251;73341;-61
2023/01/19 00:13:13;;;;;;;25.20;15.60;;;;;;;3.70;100.00;100618.04;105910;1253;61075;-64
2023/01/19 00:15:40;;;;;;;25.70;15.50;;;;;;;3.71;100.00;100612.28;105367;1251;62148;-61
2023/01/19 00:18:08;;;;;;;23.90;14.10;;;;;;;3.71;100.00;100605.92;106048;1253;74716;-62
2023/01/19 00:20:38;;;;;;;23.60;14.70;;;;;;;3.71;100.00;100611.95;105381;1256;67603;-61
2023/01/19 00:23:08;;;;;;;24.10;14.00;;;;;;;3.69;100.00;100616.24;105517;1256;73981;-61
2023/01/19 00:25:41;;;;;;;24.80;13.80;;;;;;;3.66;100.00;100620.35;105553;1255;60153;-61
2023/01/19 00:28:12;;;;;;;21.80;14.10;;;;;;;3.66;100.00;100620.73;105973;1252;60634;-62
2023/01/19 00:30:42;;;;;;;26.50;14.90;;;;;;;3.66;100.00;100617.80;105173;1258;74583;-61
2023/01/19 00:33:10;;;;;;;25.40;15.20;;;;;;;3.67;100.00;100619.14;105642;1253;68038;-64
2023/01/19 00:35:37;;;;;;;23.70;15.00;;;;;;;3.67;100.00;100620.15;105497;1253;73364;-61
2023/01/19 00:38:09;;;;;;;23.80;14.60;;;;;;;3.66;100.00;100631.20;105666;1253;62019;-63
2023/01/19 00:40:36;;;;;;;21.30;12.90;;;;;;;3.64;100.00;100632.38;105268;1256;59852;-61
2023/01/19 00:43:04;;;;;;;24.90;15.90;;;;;;;3.65;100.00;100627.14;105722;1256;74399;-64
2023/01/19 00:45:31;;;;;;;22.30;14.20;;;;;;;3.66;100.00;100627.44;105546;1253;68711;-61
2023/01/19 00:47:59;;;;;;;21.70;13.40;;;;;;;3.66;100.00;100628.59;105486;1253;74232;-61
2023/01/19 00:50:27;;;;;;;22.00;14.10;;;;;;;3.68;100.00;100636.27;105413;1253;63271;-61
2023/01/19 00:52:54;;;;;;;21.00;12.40;;;;;;;3.69;100.00;100638.52;105366;1252;61867;-62
2023/01/19 00:55:22;;;;;;;24.10;14.10;;;;;;;3.69;100.00;100640.45;105458;1257;74346;-59
2023/01/19 00:57:49;;;;;;;28.50;15.00;;;;;;;3.69;100.00;100641.98;105544;1253;67792;-60
2023/01/19 01:00:19;;;;;;;24.40;14.00;;;;;;;3.69;100.00;100634.13;105549;1256;72924;-63
2023/01/19 01:02:48;;;;;;;23.20;14.60;;;;;;;3.67;100.00;100617.76;105648;1256;61690;-61
2023/01/19 01:05:16;;;;;;;23.80;14.10;;;;;;;3.64;100.00;100623.45;105594;1255;61740;-59
2023/01/19 01:07:48;;;;;;;24.70;14.30;;;;;;;3.63;100.00;100629.08;105362;1253;74804;-59
2023/01/19 01:10:19;;;;;;;22.60;13.30;;;;;;;3.61;100.00;100631.46;105794;1254;68479;-61
2023/01/19 01:12:46;;;;;;;22.40;13.30;;;;;;;3.59;100.00;100623.39;105151;1256;73994;-62
2023/01/19 01:15:26;;;;;;;24.20;14.30;;;;;;;3.58;100.00;100617.83;105511;1256;60940;-60
2023/01/19 01:17:53;;;;;;;23.50;13.80;;;;;;;3.56;100.00;100623.45;105833;1253;61864;-62
2023/01/19 01:20:23;;;;;;;24.60;14.50;;;;;;;3.54;100.00;100619.16;105830;1252;73522;-59
2023/01/19 01:30:39;;;;;;;22.20;13.30;;;;;;;3.52;100.00;100602.68;101966;1294;601264;-59
2023/01/19 01:33:07;;;;;;;26.80;15.20;;;;;;;3.50;100.00;100603.88;104541;1270;60897;-59
2023/01/19 01:35:34;;;;;;;21.50;13.70;;;;;;;3.50;100.00;100612.30;104624;1270;62671;-59
2023/01/19 01:38:01;;;;;;;23.10;13.60;;;;;;;3.51;100.00;100615.99;104191;1265;73372;-63
2023/01/19 01:40:29;;;;;;;22.70;13.20;;;;;;;3.51;100.00;100614.83;104561;1268;68381;-58
2023/01/19 01:42:56;;;;;;;23.90;14.10;;;;;;;3.49;100.00;100610.16;104529;1267;74504;-59
2023/01/19 01:45:30;;;;;;;24.40;13.70;;;;;;;3.49;100.00;100615.69;104891;1262;177031;-59
2023/01/19 01:48:00;;;;;;;21.40;12.70;;;;;;;3.48;100.00;100611.91;105003;1256;63091;-59
2023/01/19 01:50:29;;;;;;;25.10;12.70;;;;;;;3.49;100.00;100605.70;105008;1257;73561;-62
2023/01/19 01:52:58;;;;;;;22.70;13.60;;;;;;;3.47;100.00;100601.60;105051;1256;68237;-61
2023/01/19 01:55:43;;;;;;;23.10;13.60;;;;;;;3.46;100.00;100602.85;104890;1256;75131;-62
2023/01/19 01:58:10;;;;;;;23.60;13.50;;;;;;;3.47;100.00;100611.05;105053;1262;62822;-59
2023/01/19 02:03:23;;;;;;;21.10;12.90;;;;;;;3.49;100.00;100615.34;105419;1251;75765;-59
2023/01/19 02:05:51;;;;;;;23.30;14.10;;;;;;;3.50;100.00;100616.76;105420;1251;69558;-59
2023/01/19 02:13:52;;;;;;;24.50;14.40;;;;;;;3.55;100.00;100599.52;105226;1253;62545;-59
2023/01/19 02:16:19;;;;;;;23.70;13.60;;;;;;;3.53;100.00;100596.73;105183;1256;75549;-59
2023/01/19 02:18:47;;;;;;;22.80;12.70;;;;;;;3.51;100.00;100598.47;105404;1256;69596;-61
2023/01/19 02:21:51;;;;;;;21.40;13.10;;;;;;;3.49;100.00;100596.23;105427;1257;74189;-59
2023/01/19 02:24:18;;;;;;;21.90;12.80;;;;;;;3.48;100.00;100596.66;105762;1253;62063;-61
2023/01/19 02:26:46;;;;;;;25.00;13.00;;;;;;;3.48;100.00;100601.84;105233;1254;61867;-61
2023/01/19 02:29:17;;;;;;;20.90;12.30;;;;;;;3.50;100.00;100598.92;105434;1251;75291;-61
2023/01/19 02:31:44;;;;;;;;;;;;;;;3.51;100.00;100591.27;105757;1257;69686;-65
2023/01/19 02:34:16;;;;;;;21.90;12.70;;;;;;;3.51;100.00;100590.03;105121;1252;75289;-61
2023/01/19 02:36:43;;;;;;;22.60;13.60;;;;;;;3.52;100.00;100597.38;105302;1256;60796;-59
2023/01/19 02:39:10;;;;;;;23.40;13.70;;;;;;;3.53;100.00;100598.48;105437;1251;62850;-59
2023/01/19 02:41:42;;;;;;;22.80;13.00;;;;;;;3.54;100.00;100604.08;105176;1256;75554;-60
2023/01/19 02:44:09;;;;;;;22.00;12.70;;;;;;;3.57;100.00;100625.31;105154;1252;69597;-63
2023/01/19 02:46:37;;;;;;;19.90;11.80;;;;;;;3.59;100.00;100619.27;105126;1257;75248;-61
2023/01/19 02:49:04;;;;;;;21.40;12.20;;;;;;;3.60;100.00;100615.39;105419;1254;60995;-59
2023/01/19 02:51:31;;;;;;;21.50;13.10;;;;;;;3.59;100.00;100613.42;105194;1258;61698;-60
2023/01/19 02:54:21;;;;;;;20.60;12.20;;;;;;;3.59;100.00;100612.20;105155;1252;74319;-59
2023/01/19 02:56:48;;;;;;;24.00;13.50;;;;;;;3.60;100.00;100613.83;105383;1258;68236;-61
2023/01/19 02:59:36;;;;;;;23.30;13.90;;;;;;;3.62;100.00;100609.94;105612;1257;75048;-61
2023/01/19 03:02:25;;;;;;;22.70;12.80;;;;;;;3.61;100.00;100607.58;105393;1253;62328;-59
2023/01/19 03:05:44;;;;;;;23.70;12.20;;;;;;;3.60;100.00;100608.67;105508;1253;62892;-59
2023/01/19 03:08:53;;;;;;;21.60;13.40;;;;;;;3.59;100.00;100607.40;105092;1251;74354;-60
2023/01/19 03:11:20;;;;;;;21.80;13.00;;;;;;;3.57;100.00;100610.34;105027;1259;69385;-59
2023/01/19 03:14:03;;;;;;;21.20;12.80;;;;;;;3.57;100.00;100614.13;104915;1255;73911;-59
2023/01/19 03:16:36;;;;;;;20.50;12.10;;;;;;;3.54;100.00;100615.41;105359;1257;62386;-59
2023/01/19 03:19:30;;;;;;;21.50;12.90;;;;;;;3.52;100.00;100617.59;105177;1253;62652;-59
2023/01/19 03:22:00;;;;;;;24.10;13.70;;;;;;;3.53;100.00;100617.58;105465;1259;75223;-62
2023/01/19 03:24:28;;;;;;;23.40;13.00;;;;;;;3.51;100.00;100614.27;105452;1257;69375;-59
2023/01/19 03:26:59;;;;;;;20.80;12.50;;;;;;;3.51;100.00;100620.30;105511;1257;75245;-59
2023/01/19 03:29:27;;;;;;;20.50;12.70;;;;;;;3.51;100.00;100622.91;105502;1254;63558;-59
2023/01/19 03:31:55;;;;;;;19.80;11.90;;;;;;;3.49;100.00;100625.77;105559;1256;62537;-62
2023/01/19 03:34:22;;;;;;;24.20;13.40;;;;;;;3.50;100.00;100624.49;105508;1252;75352;-60
2023/01/19 03:36:52;;;;;;;20.70;12.80;;;;;;;3.55;100.00;100622.39;105199;1260;69588;-60
2023/01/19 03:39:23;;;;;;;22.00;12.30;;;;;;;3.53;100.00;100623.59;105658;1257;73927;-59
2023/01/19 03:41:53;;;;;;;22.40;13.30;;;;;;;3.53;100.00;100628.22;105769;1257;64184;-62
2023/01/19 03:44:20;;;;;;;24.10;13.40;;;;;;;3.53;100.00;100629.06;105637;1254;62028;-62
2023/01/19 03:46:49;;;;;;;24.60;13.40;;;;;;;3.51;100.00;100626.98;105241;1259;74793;-59
2023/01/19 03:49:16;;;;;;;21.70;13.70;;;;;;;3.49;100.00;100637.46;105618;1253;69528;-60
2023/01/19 03:51:43;;;;;;;22.60;13.20;;;;;;;3.49;100.00;100650.23;105434;1256;75213;-59
2023/01/19 03:54:10;;;;;;;20.70;12.30;;;;;;;3.49;100.00;100653.25;105752;1255;60720;-61
2023/01/19 03:56:37;;;;;;;21.00;12.90;;;;;;;3.48;100.00;100652.13;105430;1253;61717;-59
2023/01/19 03:59:06;;;;;;;21.60;13.40;;;;;;;3.48;100.00;100652.14;105528;1257;75547;-59
2023/01/19 04:01:34;;;;;;;21.90;12.30;;;;;;;3.49;100.00;100658.95;107149;1257;69575;-59
2023/01/19 04:04:01;;;;;;;23.70;12.80;;;;;;;3.48;100.00;100651.48;105813;1254;75378;-63
2023/01/19 04:06:29;;;;;;;23.50;12.70;;;;;;;3.49;100.00;100656.41;105506;1254;64029;-59
2023/01/19 04:08:56;;;;;;;19.60;12.20;;;;;;;3.49;100.00;100658.83;105357;1258;61487;-60
2023/01/19 04:11:23;;;;;;;21.50;12.50;;;;;;;3.48;100.00;100663.85;105585;1253;75585;-62
2023/01/19 04:13:50;;;;;;;25.10;13.00;;;;;;;3.45;100.00;100663.05;105678;1258;69219;-60
2023/01/19 04:16:19;;;;;;;26.10;12.50;;;;;;;3.43;100.00;100668.04;105801;1253;74124;-59
2023/01/19 04:18:47;;;;;;;21.80;13.10;;;;;;;3.40;100.00;100673.92;105950;1253;63381;-61
2023/01/19 04:21:14;;;;;;;21.30;12.80;;;;;;;3.39;100.00;100675.55;105836;1253;62472;-61
2023/01/19 04:23:43;;;;;;;21.60;13.30;;;;;;;3.40;100.00;100677.89;105957;1253;74413;-59
2023/01/19 04:26:10;;;;;;;21.90;12.80;;;;;;;3.41;100.00;100681.81;105940;1258;69645;-64
2023/01/19 04:28:37;;;;;;;20.50;12.70;;;;;;;3.43;100.00;100687.30;105641;1253;73785;-62
2023/01/19 04:31:05;;;;;;;21.80;13.00;;;;;;;3.44;100.00;100690.09;105491;1253;61827;-60
2023/01/19 04:33:32;;;;;;;24.40;13.50;;;;;;;3.45;100.00;100689.16;105463;1257;61630;-61
2023/01/19 04:35:59;;;;;;;24.20;13.80;;;;;;;3.47;100.00;100692.45;106001;1253;74507;-60
2023/01/19 04:38:26;;;;;;;24.70;12.80;;;;;;;3.47;100.00;100698.58;105663;1258;69880;-61
2023/01/19 04:40:54;;;;;;;22.80;13.90;;;;;;;3.49;100.00;100701.09;105464;1253;75218;-60
2023/01/19 04:43:22;;;;;;;20.20;12.50;;;;;;;3.48;100.00;100696.45;105697;1254;60979;-59
2023/01/19 04:45:49;;;;;;;19.40;12.30;;;;;;;3.48;100.00;100696.30;105674;1257;62555;-60
2023/01/19 04:48:17;;;;;;;23.90;12.90;;;;;;;3.46;100.00;100701.34;105304;1258;74697;-62
2023/01/19 04:50:44;;;;;;;20.70;12.00;;;;;;;3.44;100.00;100706.44;105330;1258;69788;-59
2023/01/19 04:53:12;;;;;;;22.30;12.90;;;;;;;3.43;100.00;100708.05;105697;1253;74215;-60
2023/01/19 04:55:39;;;;;;;22.10;12.10;;;;;;;3.43;100.00;100703.25;105559;1253;61006;-60
2023/01/19 04:58:07;;;;;;;17.40;11.40;;;;;;;3.45;100.00;100704.63;105605;1252;62924;-60
2023/01/19 05:00:34;;;;;;;21.30;13.50;;;;;;;3.44;100.00;100704.91;105505;1257;73808;-61
2023/01/19 05:03:01;;;;;;;23.90;13.20;;;;;;;3.43;100.00;100705.50;105632;1257;68552;-60
2023/01/19 05:05:29;;;;;;;24.20;13.40;;;;;;;3.41;100.00;100703.55;105497;1253;73958;-60
2023/01/19 05:07:56;;;;;;;21.30;12.80;;;;;;;3.39;100.00;100709.25;105485;1253;62592;-61
2023/01/19 05:10:24;;;;;;;21.80;13.50;;;;;;;3.39;100.00;100711.17;105144;1253;61487;-63
2023/01/19 05:12:51;;;;;;;24.50;13.50;;;;;;;3.35;100.00;100714.36;105636;1251;75436;-60
2023/01/19 05:15:18;;;;;;;25.80;14.60;;;;;;;3.35;100.00;100720.45;105454;1253;68506;-60
2023/01/19 05:17:45;;;;;;;24.90;13.80;;;;;;;3.33;100.00;100726.59;105493;1257;75263;-60
2023/01/19 05:20:13;;;;;;;23.50;13.10;;;;;;;3.34;100.00;100733.40;105911;1253;62015;-63
2023/01/19 05:22:47;;;;;;;26.40;14.60;;;;;;;3.33;100.00;100738.27;105538;1257;61157;-60
2023/01/19 05:25:14;;;;;;;25.00;14.50;;;;;;;3.33;100.00;100744.27;105195;1253;73543;-60
2023/01/19 05:27:42;;;;;;;24.50;14.40;;;;;;;3.37;100.00;100745.69;105543;1253;68385;-60
2023/01/19 05:30:10;;;;;;;24.30;13.10;;;;;;;3.41;100.00;100748.79;105386;1253;74101;-63
2023/01/19 05:32:37;;;;;;;24.70;13.60;;;;;;;3.39;100.00;100749.95;105539;1258;60898;-64
2023/01/19 05:35:06;;;;;;;23.70;14.20;;;;;;;3.39;100.00;100746.55;105351;1257;61445;-61
2023/01/19 05:37:33;;;;;;;23.60;14.00;;;;;;;3.38;100.00;100742.80;105530;1251;74247;-60
2023/01/19 05:40:00;;;;;;;24.70;15.30;;;;;;;3.38;100.00;100746.30;105388;1257;68133;-60
2023/01/19 05:42:27;;;;;;;28.40;14.50;;;;;;;3.36;100.00;100750.08;105333;1258;73868;-59
2023/01/19 05:44:58;;;;;;;29.00;14.80;;;;;;;3.32;100.00;100757.05;105353;1259;62525;-59
2023/01/19 05:47:25;;;;;;;24.70;13.50;;;;;;;3.30;100.00;100758.07;105459;1257;62419;-59
2023/01/19 05:49:52;;;;;;;22.80;13.40;;;;;;;3.29;100.00;100756.42;105363;1253;74924;-59
2023/01/19 05:52:20;;;;;;;23.50;14.20;;;;;;;3.29;100.00;100758.36;105181;1253;70075;-64
2023/01/19 05:54:47;;;;;;;28.80;14.80;;;;;;;3.23;100.00;100756.23;104992;1257;75190;-69
2023/01/19 05:57:15;;;;;;;25.80;14.30;;;;;;;3.16;100.00;100765.00;105196;1253;63707;-61
2023/01/19 05:59:42;;;;;;;27.50;14.80;;;;;;;3.08;100.00;100763.10;105457;1254;61638;-61
2023/01/19 06:02:09;;;;;;;28.90;15.90;;;;;;;3.00;100.00;100748.80;105328;1258;76487;-60
2023/01/19 06:04:36;;;;;;;28.80;15.70;;;;;;;2.90;100.00;100749.23;105751;1258;69616;-65
2023/01/19 06:07:05;;;;;;;28.60;15.80;;;;;;;2.82;100.00;100742.89;105391;1253;75783;-60
2023/01/19 06:09:32;;;;;;;26.20;15.70;;;;;;;2.75;100.00;100751.49;105761;1257;63967;-60
2023/01/19 06:12:00;;;;;;;27.30;16.20;;;;;;;2.71;100.00;100758.33;105433;1257;61436;-60
2023/01/19 06:14:27;;;;;;;24.70;14.80;;;;;;;2.68;100.00;100765.74;106199;1253;76404;-59
2023/01/19 06:16:54;;;;;;;27.30;15.10;;;;;;;2.66;100.00;100773.63;105822;1253;68185;-60
2023/01/19 06:19:21;;;;;;;27.60;15.40;;;;;;;2.66;100.00;100783.25;105455;1256;75310;-61
2023/01/19 06:21:50;;;;;;;27.20;16.00;;;;;;;2.68;100.00;100790.76;105478;1254;63361;-62
2023/01/19 06:24:18;;;;;;;29.30;16.20;;;;;;;2.74;100.00;100789.45;105364;1257;60821;-59
2023/01/19 06:26:45;;;;;;;30.40;16.10;;;;;;;2.80;100.00;100794.30;105854;1259;75354;-60
2023/01/19 06:29:13;;;;;;;26.40;14.90;;;;;;;2.87;100.00;100797.39;105702;1253;68534;-60
2023/01/19 06:31:41;;;;;;;25.00;15.20;;;;;;;2.96;100.00;100797.07;105617;1259;75202;-61
2023/01/19 06:34:08;;;;;;;25.40;14.20;;;;;;;3.03;100.00;100795.98;105456;1255;62355;-62
2023/01/19 06:36:35;;;;;;;26.20;15.10;;;;;;;3.07;100.00;100789.83;105423;1257;61701;-63
2023/01/19 06:39:04;;;;;;;27.50;15.50;;;;;;;3.11;100.00;100781.08;105491;1258;76427;-62
2023/01/19 06:41:32;;;;;;;29.10;14.80;;;;;;;3.15;100.00;100779.52;105388;1253;69435;-63
2023/01/19 06:44:00;;;;;;;27.80;16.50;;;;;;;3.18;100.00;100781.06;105337;1257;75295;-63
2023/01/19 06:46:27;;;;;;;31.30;16.10;;;;;;;3.21;100.00;100782.17;105419;1258;62418;-62
2023/01/19 06:48:54;;;;;;;25.40;14.50;;;;;;;3.26;100.00;100781.91;105491;1254;62311;-65
2023/01/19 06:51:22;;;;;;;24.20;14.70;;;;;;;3.34;100.00;100776.69;105416;1256;76586;-62
2023/01/19 06:53:49;;;;;;;27.30;14.40;;;;;;;3.39;100.00;100778.61;105432;1253;69312;-62
2023/01/19 06:56:17;;;;;;;31.90;15.70;;;;;;;3.47;100.00;100775.79;105385;1253;73602;-62
2023/01/19 06:58:49;;;;;;;25.00;15.10;;;;;;;3.55;100.00;100778.23;105775;1256;60985;-64
2023/01/19 07:01:16;;;;;;;23.40;13.80;;;;;;;3.59;100.00;100780.42;105176;1259;61343;-60
2023/01/19 07:03:44;;;;;;;25.70;14.30;;;;;;;3.65;100.00;100781.65;105135;1258;76145;-62
2023/01/19 07:06:12;;;;;;;24.30;14.10;;;;;;;3.73;100.00;100780.58;105403;1257;68283;-62
2023/01/19 07:08:40;;;;;;;21.90;13.90;;;;;;;3.81;100.00;100784.55;106087;1258;75264;-65
2023/01/19 07:11:12;;;;;;;28.50;15.30;;;;;;;3.87;100.00;100784.50;105109;1253;61433;-61
2023/01/19 07:13:57;;;;;;;22.90;13.80;;;;;;;3.99;100.00;100786.45;105188;1253;63159;-61
2023/01/19 07:16:24;;;;;;;21.30;13.00;;;;;;;4.08;100.00;100779.90;105525;1256;76184;-65
2023/01/19 07:18:52;;;;;;;23.30;13.80;;;;;;;4.18;100.00;100784.70;105585;1256;69117;-64
2023/01/19 07:21:19;;;;;;;22.60;14.60;;;;;;;4.24;100.00;100793.64;105402;1257;74068;-61
2023/01/19 07:23:50;;;;;;;21.90;13.40;;;;;;;4.27;100.00;100793.95;105448;1257;60812;-61
2023/01/19 07:26:19;;;;;;;25.50;15.00;;;;;;;4.29;100.00;100801.66;105679;1252;62673;-61
2023/01/19 07:28:47;;;;;;;22.20;13.40;;;;;;;4.33;100.00;100804.73;105676;1254;76502;-65
2023/01/19 07:31:15;;;;;;;21.60;12.70;;;;;;;4.33;100.00;100806.84;105229;1257;69563;-60
2023/01/19 07:33:42;;;;;;;22.50;14.30;;;;;;;4.36;100.00;100810.92;105367;1254;74088;-60
2023/01/19 07:36:10;;;;;;;28.60;15.60;;;;;;;4.44;100.00;100811.80;105263;1257;61320;-60
2023/01/19 07:38:37;;;;;;;24.80;14.00;;;;;;;4.51;100.00;100813.89;105996;1257;60701;-62
2023/01/19 07:41:06;;;;;;;25.70;13.80;;;;;;;4.58;100.00;100815.90;105474;1259;76394;-61
2023/01/19 07:43:33;;;;;;;22.40;13.40;;;;;;;4.66;100.00;100810.61;105727;1252;68268;-60
2023/01/19 07:46:03;;;;;;;22.50;14.30;;;;;;;4.77;100.00;100813.46;105753;1253;75023;-62
2023/01/19 07:48:31;;;;;;;23.30;14.60;;;;;;;4.91;100.00;100817.20;106020;1260;61800;-63
2023/01/19 07:51:07;;;;;;;25.20;15.00;;;;;;;5.09;100.00;100820.95;105799;1256;61662;-60
2023/01/19 07:53:38;;;;;;;23.00;13.70;;;;;;;5.29;100.00;100820.93;105619;1256;76390;-61
2023/01/19 07:56:06;;;;;;;22.10;13.40;;;;;;;5.47;100.00;100815.04;105789;1257;69737;-61
2023/01/19 07:58:33;;;;;;;23.20;14.30;;;;;;;5.65;100.00;100814.03;105966;1257;74462;-63
2023/01/19 08:01:08;;;;;;;25.80;15.00;;;;;;;5.80;100.00;100813.14;105696;1256;62793;-61
2023/01/19 08:03:35;;;;;;;27.50;16.30;;;;;;;5.96;100.00;100812.92;105654;1252;61433;-59
2023/01/19 08:06:04;;;;;;;23.30;15.20;;;;;;;6.11;100.00;100814.85;105758;1256;76315;-62
2023/01/19 08:08:31;;;;;;;23.00;14.70;;;;;;;6.25;100.00;100814.05;105987;1257;68800;-62
2023/01/19 08:10:59;;;;;;;22.00;14.40;;;;;;;6.36;100.00;100815.84;105704;1256;74790;-59
2023/01/19 08:13:26;;;;;;;25.40;15.90;;;;;;;6.44;100.00;100815.24;105845;1257;62926;-59
2023/01/19 08:15:53;;;;;;;25.50;15.40;;;;;;;6.50;100.00;100818.98;105757;1257;62583;-59
2023/01/19 08:18:21;;;;;;;22.10;13.90;;;;;;;6.53;100.00;100823.08;106192;1257;75339;-62
2023/01/19 08:20:48;;;;;;;24.80;15.20;;;;;;;6.57;100.00;100828.15;105488;1254;69193;-59
2023/01/19 08:23:16;;;;;;;21.60;14.50;;;;;;;6.62;100.00;100830.71;105794;1254;75231;-60
2023/01/19 08:25:44;;;;;;;20.00;13.60;;;;;;;6.70;100.00;100824.79;105847;1254;62895;-60
2023/01/19 08:28:13;;;;;;;20.10;12.70;;;;;;;6.83;100.00;100822.21;105786;1257;62767;-63
2023/01/19 08:30:43;;;;;;;23.60;14.90;;;;;;;6.97;100.00;100815.45;105736;1257;76885;-62
2023/01/19 08:33:11;;;;;;;23.90;14.60;;;;;;;7.27;100.00;100812.57;105622;1257;68569;-59
2023/01/19 08:35:47;;;;;;;24.00;15.60;;;;;;;7.74;100.00;100815.27;105744;1257;75234;-60
2023/01/19 08:38:15;;;;;;;20.20;13.90;;;;;;;8.16;100.00;100822.86;105965;1253;63035;-62
2023/01/19 08:40:43;;;;;;;26.00;15.00;;;;;;;8.49;100.00;100820.27;105594;1254;61705;-60
2023/01/19 08:43:12;;;;;;;21.60;14.20;;;;;;;8.75;100.00;100816.58;105565;1257;76215;-60
2023/01/19 08:45:41;;;;;;;22.60;13.70;;;;;;;9.14;100.00;100811.02;105821;1254;70031;-59
2023/01/19 08:48:09;;;;;;;21.70;13.40;;;;;;;9.50;100.00;100802.33;105898;1257;75180;-60
2023/01/19 08:50:36;;;;;;;21.90;13.70;;;;;;;9.95;100.00;100800.84;105578;1252;62867;-60
2023/01/19 08:53:06;;;;;;;21.90;15.00;;;;;;;10.36;100.00;100795.20;105719;1253;61948;-60
2023/01/19 08:55:34;;;;;;;19.50;12.10;;;;;;;10.69;100.00;100791.95;105658;1251;76315;-60
2023/01/19 08:58:05;;;;;;;19.90;13.10;;;;;;;10.93;100.00;100792.38;106035;1259;69535;-64
2023/01/19 09:00:33;;;;;;;20.00;13.00;;;;;;;11.17;100.00;100788.48;105737;1256;75172;-60
2023/01/19 09:03:02;;;;;;;26.00;16.20;;;;;;;11.34;100.00;100788.59;105807;1254;61760;-60
2023/01/19 09:05:35;;;;;;;20.60;14.60;;;;;;;11.34;100.00;100783.48;105528;1256;61880;-60
2023/01/19 09:08:05;;;;;;;26.00;15.80;;;;;;;11.39;100.00;100787.66;106090;1257;76257;-62
2023/01/19 09:10:34;;;;;;;21.00;13.00;;;;;;;11.57;100.00;100791.73;105733;1254;69687;-60
2023/01/19 09:13:03;;;;;;;23.90;14.40;;;;;;;11.62;100.00;100790.27;105637;1254;74922;-59
2023/01/19 09:15:32;;;;;;;19.90;14.00;;;;;;;11.49;100.00;100785.83;105858;1254;62869;-64
2023/01/19 09:18:00;;;;;;;24.60;13.80;;;;;;;11.33;100.00;100785.00;105693;1258;61839;-59
2023/01/19 09:20:30;;;;;;;20.70;12.80;;;;;;;11.24;100.00;100788.04;105704;1258;75570;-60
2023/01/19 09:22:57;;;;;;;21.30;12.80;;;;;;;11.09;100.00;100783.77;105680;1254;68341;-62
2023/01/19 09:25:24;;;;;;;20.30;13.60;;;;;;;10.88;100.00;100788.69;105487;1259;73765;-61
2023/01/19 09:27:51;;;;;;;16.80;12.30;;;;;;;10.71;100.00;100781.80;105499;1260;62621;-62
2023/01/19 09:30:19;;;;;;;16.60;11.20;;;;;;;10.69;100.00;100785.10;105887;1259;61453;-65
2023/01/19 09:32:46;;;;;;;19.70;12.70;;;;;;;10.68;100.00;100788.20;105457;1253;76376;-61
2023/01/19 09:35:13;;;;;;;19.30;12.60;;;;;;;10.72;100.00;100783.52;105490;1259;68828;-61
2023/01/19 09:37:45;;;;;;;18.20;12.40;;;;;;;10.96;100.00;100780.56;106023;1254;75211;-65
2023/01/19 09:40:12;;;;;;;18.80;12.50;;;;;;;11.23;100.00;100783.73;105488;1258;62918;-63
2023/01/19 09:42:42;;;;;;;18.10;12.20;;;;;;;11.51;100.00;100781.03;105601;1259;61704;-62
2023/01/19 09:45:15;;;;;;;15.10;11.30;;;;;;;11.70;100.00;100780.75;105647;1259;76436;-61
2023/01/19 09:47:42;;;;;;;17.40;12.20;;;;;;;11.65;100.00;100781.67;105807;1259;68878;-64
2023/01/19 09:50:24;;;;;;;16.50;12.30;;;;;;;11.65;100.00;100777.92;105320;1254;74500;-62
2023/01/19 09:53:06;;;;;;;19.00;11.50;;;;;;;11.82;100.00;100785.71;105774;1253;62911;-61
2023/01/19 09:55:33;;;;;;;16.80;11.40;;;;;;;11.97;100.00;100783.30;105500;1258;61703;-61
2023/01/19 09:58:00;;;;;;;16.50;11.40;;;;;;;11.93;100.00;100787.74;105723;1257;76244;-64
2023/01/19 10:00:28;;;;;;;18.50;11.20;;;;;;;11.84;100.00;100784.78;105802;1258;69675;-61
2023/01/19 10:03:26;;;;;;;17.70;11.50;;;;;;;11.73;100.00;100787.92;105476;1254;73686;-65
2023/01/19 10:05:54;;;;;;;22.80;13.00;;;;;;;11.62;100.00;100781.85;105494;1264;62696;-62
2023/01/19 10:08:46;;;;;;;19.10;12.80;;;;;;;11.54;100.00;100782.29;105725;1257;62825;-61
2023/01/19 10:11:44;;;;;;;18.90;11.70;;;;;;;11.42;100.00;100777.35;105448;1256;75225;-62
2023/01/19 10:14:39;;;;;;;17.10;11.80;;;;;;;11.23;100.00;100776.79;105729;1256;68856;-61
2023/01/19 10:17:20;;;;;;;15.90;10.70;;;;;;;11.09;100.00;100770.95;105576;1257;74906;-61
2023/01/19 10:19:48;;;;;;;;;;;;;;;10.85;100.00;100772.73;105763;1253;62604;-60
2023/01/19 10:22:23;;;;;;;16.50;11.70;;;;;;;10.80;100.00;100767.42;105970;1259;61354;-64
2023/01/19 10:25:01;;;;;;;17.10;12.00;;;;;;;11.03;100.00;100771.38;105449;1251;75058;-60
2023/01/19 10:27:32;;;;;;;17.90;11.00;;;;;;;11.31;100.00;100773.59;105802;1258;69549;-62
2023/01/19 10:30:00;;;;;;;20.50;12.90;;;;;;;11.51;100.00;100767.83;105689;1256;75546;-60
2023/01/19 10:32:32;;;;;;;20.40;12.40;;;;;;;11.63;100.00;100770.23;105718;1256;62931;-60
2023/01/19 10:35:00;;;;;;;16.70;11.60;;;;;;;11.80;100.00;100768.11;105648;1255;62650;-64
2023/01/19 10:37:36;;;;;;;17.20;11.30;;;;;;;11.90;100.00;100766.96;105211;1260;75281;-60
2023/01/19 10:40:10;;;;;;;20.00;12.20;;;;;;;11.92;100.00;100764.30;105603;1257;67915;-60
2023/01/19 10:42:39;;;;;;;17.50;11.90;;;;;;;12.00;100.00;100763.77;105379;1254;73529;-61
2023/01/19 10:45:19;;;;;;;17.60;12.40;;;;;;;12.13;100.00;100764.15;105585;1254;62563;-60
2023/01/19 10:47:47;;;;;;;16.90;11.60;;;;;;;12.20;100.00;100766.29;105474;1252;62997;-60
2023/01/19 10:50:24;;;;;;;18.60;12.30;;;;;;;12.20;100.00;100765.97;105791;1252;75166;-60
2023/01/19 10:52:52;;;;;;;15.40;11.40;;;;;;;12.09;100.00;100764.05;105615;1254;68208;-61
2023/01/19 10:55:24;;;;;;;19.10;11.90;;;;;;;11.97;100.00;100771.60;105471;1254;75682;-60
2023/01/19 10:57:52;;;;;;;;;;;;;;;11.90;100.00;100765.92;105524;1267;61597;-59
2023/01/19 11:00:30;;;;;;;18.70;12.00;;;;;;;11.84;100.00;100767.70;105739;1256;62956;-61
2023/01/19 11:02:57;;;;;;;17.50;12.50;;;;;;;11.72;100.00;100765.09;105630;1259;74988;-61
2023/01/19 11:05:27;;;;;;;20.20;13.40;;;;;;;11.60;100.00;100767.68;105687;1258;68305;-62
2023/01/19 11:07:55;;;;;;;16.40;12.10;;;;;;;11.41;100.00;100766.60;105665;1256;75449;-59
2023/01/19 11:10:24;;;;;;;18.70;13.70;;;;;;;11.13;100.00;100772.56;105776;1263;62420;-61
2023/01/19 11:12:54;;;;;;;19.10;13.60;;;;;;;10.77;100.00;100774.02;105740;1255;62016;-64
2023/01/19 11:15:28;;;;;;;20.40;14.00;;;;;;;10.35;100.00;100772.55;105684;1257;76216;-60
2023/01/19 11:17:55;;;;;;;20.30;14.20;;;;;;;9.97;100.00;100772.04;105973;1256;69577;-64
2023/01/19 11:20:24;;;;;;;19.80;13.80;;;;;;;9.73;100.00;100772.02;105338;1255;75321;-61
2023/01/19 11:23:04;;;;;;;20.70;13.80;;;;;;;9.49;100.00;100771.89;105630;1254;62650;-62
2023/01/19 11:25:33;;;;;;;19.70;13.20;;;;;;;9.27;100.00;100775.18;105654;1254;62605;-60
2023/01/19 11:28:00;;;;;;;19.40;12.90;;;;;;;9.17;100.00;100783.69;105796;1254;76174;-62
2023/01/19 11:30:27;;;;;;;22.30;13.90;;;;;;;9.03;100.00;100783.73;105753;1254;69640;-60